Time;durP1;ratioP1;P1;durP2;ratioP2;P2;SDS_P1;SDS_P2;PMS_P1;PMS_P2;Temp;Humidity;BMP_temperature;BMP_pressure;BME280_temperature;BME280_humidity;BME280_pressure;Samples;Min_cycle;Max_cycle;Signal;HPM_P1;HPM_P2
2022/10/03 00:01:17;;;;;;;11.85;1.55;;;10.20;99.90;;;;;;5068026;28;20032;-79
2022/10/03 00:04:07;;;;;;;11.38;2.00;;;10.30;99.90;;;;;;5056788;28;20045;-79
2022/10/03 00:07:02;;;;;;;9.02;1.55;;;10.40;99.90;;;;;;5069101;28;20033;-79
2022/10/03 00:09:46;;;;;;;10.35;1.63;;;10.40;99.90;;;;;;5065921;28;20079;-79
2022/10/03 00:12:30;;;;;;;12.55;1.77;;;11.60;99.90;;;;;;5053138;28;20451;-79
2022/10/03 00:15:25;;;;;;;10.50;1.98;;;10.40;99.90;;;;;;5068315;28;20036;-79
2022/10/03 00:18:11;;;;;;;7.88;1.77;;;10.50;99.90;;;;;;5061794;28;20052;-79
2022/10/03 00:21:08;;;;;;;11.80;1.70;;;10.50;99.90;;;;;;5051990;28;20052;-79
2022/10/03 00:24:06;;;;;;;11.43;1.90;;;10.60;99.90;;;;;;5068678;28;20041;-78
2022/10/03 00:26:38;;;;;;;11.10;1.90;;;10.60;99.90;;;;;;5068668;28;20469;-79
2022/10/03 00:29:22;;;;;;;11.70;1.73;;;10.70;99.90;;;;;;5067353;28;20123;-78
2022/10/03 00:32:20;;;;;;;9.40;1.83;;;10.60;99.90;;;;;;5068044;28;20044;-78
2022/10/03 00:35:13;;;;;;;9.40;1.60;;;10.70;99.90;;;;;;5051675;28;20509;-78
2022/10/03 00:37:59;;;;;;;12.70;2.67;;;10.80;99.90;;;;;;5069019;28;20037;-78
2022/10/03 00:40:43;;;;;;;13.07;2.10;;;10.80;99.90;;;;;;5068626;28;20047;-79
2022/10/03 00:43:40;;;;;;;8.77;1.60;;;10.90;99.90;;;;;;5068274;28;20028;-78
2022/10/03 00:46:25;;;;;;;11.07;1.70;;;10.90;99.90;;;;;;5068054;28;20086;-79
2022/10/03 00:49:29;;;;;;;8.65;1.73;;;10.90;99.90;;;;;;5069195;28;20041;-79
2022/10/03 00:52:10;;;;;;;7.32;1.60;;;10.90;99.90;;;;;;5066927;28;20045;-79
2022/10/03 00:54:51;;;;;;;10.60;1.85;;;11.00;99.90;;;;;;5052058;28;20139;-79
2022/10/03 00:57:49;;;;;;;11.23;1.83;;;11.00;99.90;;;;;;5071902;28;20044;-79
2022/10/03 01:00:26;;;;;;;10.07;1.92;;;11.00;99.90;;;;;;5069536;28;20115;-79
2022/10/03 01:03:10;;;;;;;13.45;1.70;;;11.10;99.90;;;;;;5054725;28;20036;-79
2022/10/03 01:06:05;;;;;;;10.23;1.85;;;11.00;99.90;;;;;;5068332;28;20048;-79
2022/10/03 01:09:02;;;;;;;8.02;1.90;;;11.10;99.90;;;;;;5053976;28;20033;-79
2022/10/03 01:11:52;;;;;;;11.85;1.67;;;11.10;99.90;;;;;;5072465;28;20048;-79
2022/10/03 01:14:27;;;;;;;11.43;1.77;;;11.10;99.90;;;;;;5072096;28;20123;-78
2022/10/03 01:17:08;;;;;;;8.52;1.50;;;11.10;99.90;;;;;;5072397;28;20059;-79
2022/10/03 01:19:33;;;;;;;12.05;2.08;;;11.10;99.90;;;;;;5069803;28;20080;-79
2022/10/03 01:22:17;;;;;;;11.57;1.47;;;11.10;99.90;;;;;;5072083;28;20076;-79
2022/10/03 01:24:58;;;;;;;7.88;1.88;;;11.10;99.90;;;;;;5069671;28;20106;-78
2022/10/03 01:30:41;;;;;;;9.48;1.50;;;11.00;99.90;;;;;;5071971;28;20082;-79
2022/10/03 01:33:36;;;;;;;10.27;1.77;;;11.10;99.90;;;;;;5072209;28;20032;-79
2022/10/03 01:36:18;;;;;;;8.52;1.25;;;11.00;99.90;;;;;;5070929;28;20040;-79
2022/10/03 01:38:59;;;;;;;11.52;1.90;;;11.00;99.90;;;;;;5071960;28;20032;-79
2022/10/03 01:41:49;;;;;;;14.68;2.25;;;11.00;99.90;;;;;;5070610;28;20045;-79
2022/10/03 01:44:28;;;;;;;10.07;1.50;;;11.00;99.90;;;;;;5071925;28;20025;-79
2022/10/03 01:47:07;;;;;;;11.50;1.50;;;10.90;99.90;;;;;;5071642;28;20056;-79
2022/10/03 01:49:37;;;;;;;10.98;2.05;;;10.90;99.90;;;;;;5069419;28;20040;-79
2022/10/03 01:52:11;;;;;;;15.95;1.58;;;10.80;99.90;;;;;;5071733;28;20047;-79
2022/10/03 01:55:04;;;;;;;7.28;1.73;;;10.70;99.90;;;;;;5069592;28;20487;-80
2022/10/03 01:57:41;;;;;;;9.77;1.75;;;10.70;99.90;;;;;;5068941;28;20060;-79
2022/10/03 02:00:11;;;;;;;15.10;1.70;;;10.60;99.90;;;;;;5054753;28;20044;-79
2022/10/03 02:02:46;;;;;;;10.95;1.40;;;10.60;99.90;;;;;;5068856;28;20040;-80
2022/10/03 02:05:38;;;;;;;10.18;1.30;;;10.50;99.90;;;;;;5071361;28;20036;-79
2022/10/03 02:08:17;;;;;;;7.15;1.92;;;10.50;99.90;;;;;;5069197;28;20086;-80
2022/10/03 02:11:04;;;;;;;17.00;1.98;;;10.50;99.90;;;;;;5071038;28;20075;-79
2022/10/03 02:13:38;;;;;;;15.88;2.08;;;10.50;99.90;;;;;;5053607;28;20048;-78
2022/10/03 02:16:26;;;;;;;10.07;1.58;;;10.40;99.90;;;;;;5069618;28;20048;-79
2022/10/03 02:19:27;;;;;;;16.42;2.17;;;10.40;99.90;;;;;;5070042;28;20075;-78
2022/10/03 02:21:55;;;;;;;11.27;1.58;;;10.50;99.90;;;;;;5044304;28;20495;-78
2022/10/03 02:24:56;;;;;;;7.63;1.10;;;10.50;99.90;;;;;;5070974;28;20137;-78
2022/10/03 02:27:57;;;;;;;12.70;1.88;;;10.50;99.90;;;;;;5060447;28;20044;-79
2022/10/03 02:30:53;;;;;;;8.93;2.05;;;10.50;99.90;;;;;;5069356;28;20032;-79
2022/10/03 02:33:54;;;;;;;11.40;2.00;;;10.50;99.90;;;;;;5069463;28;20123;-78
2022/10/03 02:36:29;;;;;;;7.57;1.50;;;10.50;99.90;;;;;;5069656;28;20068;-79
2022/10/03 02:39:13;;;;;;;12.35;1.42;;;10.50;99.90;;;;;;5068225;28;20549;-79
2022/10/03 02:42:18;;;;;;;8.15;1.42;;;10.60;99.90;;;;;;5070489;28;20090;-79
2022/10/03 02:45:22;;;;;;;12.93;1.80;;;10.60;99.90;;;;;;5053253;28;20396;-78
2022/10/03 02:48:05;;;;;;;9.82;1.58;;;10.70;99.90;;;;;;5070642;28;20499;-80
2022/10/03 02:51:08;;;;;;;10.20;1.60;;;10.70;99.90;;;;;;5054202;28;20762;-79
2022/10/03 02:53:55;;;;;;;10.10;1.65;;;10.80;99.90;;;;;;5051248;28;20040;-78
2022/10/03 02:56:30;;;;;;;7.25;1.60;;;10.80;99.90;;;;;;5067868;28;20111;-79
2022/10/03 02:59:20;;;;;;;9.70;2.15;;;10.90;99.90;;;;;;5069807;28;20102;-78
2022/10/03 03:02:07;;;;;;;14.38;2.17;;;10.90;99.90;;;;;;5070017;28;20043;-79
2022/10/03 03:04:58;;;;;;;10.52;1.98;;;11.00;99.90;;;;;;5053965;28;20468;-79
2022/10/03 03:07:26;;;;;;;14.35;1.88;;;11.00;99.90;;;;;;5053315;28;20147;-79
2022/10/03 03:10:01;;;;;;;5.70;1.55;;;11.00;99.90;;;;;;5069753;28;20040;-79
2022/10/03 03:12:51;;;;;;;9.68;1.33;;;11.10;99.90;;;;;;5070401;28;20028;-79
2022/10/03 03:15:36;;;;;;;8.00;1.73;;;11.10;99.90;;;;;;5068065;28;20116;-79
2022/10/03 03:18:28;;;;;;;13.63;1.48;;;11.10;99.90;;;;;;5051717;28;20523;-79
2022/10/03 03:21:17;;;;;;;10.60;1.58;;;11.10;99.90;;;;;;5069291;28;20052;-79
2022/10/03 03:24:12;;;;;;;7.78;1.48;;;11.20;99.90;;;;;;5051937;28;20041;-79
2022/10/03 03:26:53;;;;;;;5.88;1.30;;;11.20;99.90;;;;;;5068377;28;20484;-79
2022/10/03 03:29:42;;;;;;;7.15;1.35;;;11.20;99.90;;;;;;5069549;28;20116;-79
2022/10/03 03:32:41;;;;;;;8.30;1.38;;;11.20;99.90;;;;;;5069263;28;20044;-80
2022/10/03 03:35:28;;;;;;;9.65;1.33;;;11.20;99.90;;;;;;5067578;28;20044;-80
2022/10/03 03:38:11;;;;;;;10.10;1.50;;;11.20;99.90;;;;;;5069490;28;20085;-78
2022/10/03 03:40:51;;;;;;;11.75;1.88;;;11.20;99.90;;;;;;5053047;28;20043;-79
2022/10/03 03:43:33;;;;;;;10.25;1.75;;;11.20;99.90;;;;;;5068050;28;20392;-79
2022/10/03 03:46:07;;;;;;;11.30;1.88;;;11.20;99.90;;;;;;5069300;28;20112;-78
2022/10/03 03:48:52;;;;;;;10.73;1.73;;;11.20;99.90;;;;;;5069551;28;20040;-79
2022/10/03 03:51:27;;;;;;;10.90;1.85;;;11.20;99.90;;;;;;5052817;28;20045;-78
2022/10/03 03:54:18;;;;;;;18.80;2.53;;;11.20;99.90;;;;;;5066883;28;20068;-79
2022/10/03 03:57:05;;;;;;;12.93;2.25;;;11.20;99.90;;;;;;5052113;28;20043;-79
2022/10/03 03:59:40;;;;;;;6.57;1.57;;;11.20;99.90;;;;;;5069720;28;20503;-79
2022/10/03 04:02:12;;;;;;;7.18;1.50;;;11.20;99.90;;;;;;5068695;28;20102;-78
2022/10/03 04:05:07;;;;;;;12.80;1.65;;;11.20;99.90;;;;;;5069931;28;20036;-78
2022/10/03 04:07:41;;;;;;;14.40;1.70;;;11.20;99.90;;;;;;5069656;28;20032;-79
2022/10/03 04:10:26;;;;;;;12.38;2.20;;;11.20;99.90;;;;;;5070064;28;20480;-79
2022/10/03 04:13:10;;;;;;;8.18;1.73;;;11.20;99.90;;;;;;5050382;28;20488;-78
2022/10/03 04:15:58;;;;;;;8.95;1.88;;;11.20;99.90;;;;;;5052550;28;20508;-78
2022/10/03 04:18:57;;;;;;;15.15;2.42;;;11.20;99.90;;;;;;5069165;28;20043;-79
2022/10/03 04:21:48;;;;;;;10.50;1.85;;;11.20;99.90;;;;;;5051989;28;20054;-79
2022/10/03 04:25:00;;;;;;;8.27;1.63;;;11.20;99.90;;;;;;5068038;28;20493;-79
2022/10/03 04:28:00;;;;;;;10.02;1.77;;;11.20;99.90;;;;;;5046570;28;20051;-78
2022/10/03 04:30:59;;;;;;;7.97;1.58;;;11.20;99.90;;;;;;5069317;28;20492;-79
2022/10/03 04:33:43;;;;;;;12.48;1.67;;;11.20;99.90;;;;;;5052560;28;20086;-80
2022/10/03 04:36:32;;;;;;;9.85;1.73;;;11.20;99.90;;;;;;5072980;28;20109;-80
2022/10/03 04:39:35;;;;;;;10.45;1.95;;;11.10;99.90;;;;;;5073340;28;20043;-81
2022/10/03 04:42:14;;;;;;;6.85;1.48;;;11.10;99.90;;;;;;5072232;28;20044;-79
2022/10/03 04:44:54;;;;;;;8.23;1.40;;;11.10;99.90;;;;;;5071426;28;20064;-80
2022/10/03 04:47:33;;;;;;;6.70;1.70;;;11.10;99.90;;;;;;5056234;28;20036;-79
2022/10/03 04:50:11;;;;;;;10.02;2.20;;;11.10;99.90;;;;;;5071032;28;20044;-80
2022/10/03 04:52:47;;;;;;;11.82;1.70;;;11.10;99.90;;;;;;5073113;28;20087;-81
2022/10/03 04:55:41;;;;;;;8.70;1.75;;;11.10;99.90;;;;;;5072975;28;20071;-82
2022/10/03 04:58:30;;;;;;;10.77;1.83;;;11.10;99.90;;;;;;5072443;28;20047;-81
2022/10/03 05:01:11;;;;;;;9.13;1.67;;;11.10;99.90;;;;;;5053815;28;20047;-81
2022/10/03 05:04:03;;;;;;;8.77;1.60;;;11.00;99.90;;;;;;5044282;28;20037;-81
2022/10/03 05:06:53;;;;;;;11.32;1.92;;;11.00;99.90;;;;;;5067551;28;20044;-81
2022/10/03 05:09:44;;;;;;;11.23;1.85;;;10.90;99.90;;;;;;5050802;28;20504;-81
2022/10/03 05:12:44;;;;;;;9.77;1.60;;;10.80;99.90;;;;;;5065958;28;20052;-81
2022/10/03 05:15:09;;;;;;;6.68;1.15;;;10.80;99.90;;;;;;5061602;28;20044;-82
2022/10/03 05:18:14;;;;;;;10.03;1.70;;;10.70;99.90;;;;;;5065048;28;20037;-81
2022/10/03 05:21:04;;;;;;;12.38;1.58;;;10.60;99.90;;;;;;5067835;28;20049;-81
2022/10/03 05:23:51;;;;;;;11.02;1.63;;;10.50;99.90;;;;;;5064236;28;20484;-81
2022/10/03 05:26:26;;;;;;;11.05;1.45;;;10.50;99.90;;;;;;5067748;28;20040;-81
2022/10/03 05:29:26;;;;;;;13.02;1.73;;;10.40;99.90;;;;;;5068169;28;20036;-81
2022/10/03 05:31:59;;;;;;;6.63;1.35;;;10.40;99.90;;;;;;5064826;28;20051;-79
2022/10/03 05:35:04;;;;;;;7.88;1.27;;;10.30;99.90;;;;;;5066098;28;20040;-79
2022/10/03 05:37:48;;;;;;;7.88;1.83;;;10.30;99.90;;;;;;5066689;28;20102;-77
2022/10/03 05:40:24;;;;;;;9.70;1.60;;;10.30;99.90;;;;;;5049769;28;20040;-78
2022/10/03 05:43:01;;;;;;;7.88;2.08;;;10.20;99.90;;;;;;5050533;28;20040;-78
2022/10/03 05:45:29;;;;;;;;;;;10.20;99.90;;;;;;5069002;28;20167;-79
2022/10/03 05:48:27;;;;;;;7.63;1.33;;;10.20;99.90;;;;;;5063917;28;19939;-79
2022/10/03 05:51:15;;;;;;;8.52;1.70;;;10.10;99.90;;;;;;5064853;28;20357;-79
2022/10/03 05:54:07;;;;;;;5.05;1.45;;;10.10;99.90;;;;;;5058799;28;20151;-79
2022/10/03 05:56:42;;;;;;;7.28;1.33;;;10.10;99.90;;;;;;5053794;28;20377;-79
2022/10/03 05:59:16;;;;;;;8.55;1.52;;;10.00;99.90;;;;;;5038678;28;20439;-79
2022/10/03 06:02:08;;;;;;;12.02;1.83;;;10.10;99.90;;;;;;5041933;28;20048;-78
2022/10/03 06:04:54;;;;;;;11.23;1.60;;;10.10;99.90;;;;;;5056765;28;20041;-78
2022/10/03 06:07:22;;;;;;;8.70;1.58;;;10.10;99.90;;;;;;5060767;28;20400;-78
2022/10/03 06:09:53;;;;;;;9.23;1.95;;;10.10;99.90;;;;;;5063941;28;20125;-79
2022/10/03 06:12:28;;;;;;;9.25;1.77;;;10.10;99.90;;;;;;5066394;28;20404;-78
2022/10/03 06:15:18;;;;;;;8.50;1.98;;;10.10;99.90;;;;;;5063159;28;20040;-78
2022/10/03 06:17:56;;;;;;;7.80;1.50;;;10.10;99.90;;;;;;5064869;28;20047;-79
2022/10/03 06:20:49;;;;;;;8.77;1.50;;;10.20;99.90;;;;;;5059781;28;20102;-79
2022/10/03 06:23:52;;;;;;;7.30;1.38;;;10.20;99.90;;;;;;5057692;28;20041;-78
2022/10/03 06:26:55;;;;;;;15.05;2.08;;;10.30;99.90;;;;;;5044763;28;20324;-78
2022/10/03 06:29:58;;;;;;;11.10;1.90;;;10.40;99.90;;;;;;5063660;28;20078;-79
2022/10/03 06:33:00;;;;;;;8.52;2.28;;;10.40;99.90;;;;;;5063577;28;20063;-78
2022/10/03 06:35:45;;;;;;;8.15;1.60;;;10.50;99.90;;;;;;5046347;28;20036;-79
2022/10/03 06:38:35;;;;;;;7.55;1.20;;;10.60;99.90;;;;;;5047389;28;20028;-79
2022/10/03 06:41:28;;;;;;;10.25;1.48;;;10.70;99.90;;;;;;5063779;28;20044;-79
2022/10/03 06:44:17;;;;;;;7.25;1.85;;;10.80;99.90;;;;;;5045901;28;20048;-79
2022/10/03 06:47:07;;;;;;;8.20;1.40;;;11.00;99.90;;;;;;5063216;28;20123;-78
2022/10/03 06:50:11;;;;;;;13.10;1.80;;;11.10;99.90;;;;;;5064767;28;20059;-80
2022/10/03 06:52:57;;;;;;;6.75;1.23;;;11.20;99.90;;;;;;5046641;28;20056;-78
2022/10/03 06:55:39;;;;;;;6.13;1.60;;;11.30;99.90;;;;;;5063262;28;20111;-78
2022/10/03 06:58:11;;;;;;;7.60;1.40;;;11.50;99.90;;;;;;5064618;28;20032;-79
2022/10/03 07:01:17;;;;;;;11.45;2.45;;;11.70;99.90;;;;;;5064303;28;20036;-79
2022/10/03 07:04:05;;;;;;;10.00;1.70;;;11.90;99.90;;;;;;5061622;28;20040;-79
2022/10/03 07:06:32;;;;;;;6.25;1.20;;;12.20;99.90;;;;;;5063407;28;20037;-79
2022/10/03 07:09:10;;;;;;;9.23;1.60;;;12.30;99.90;;;;;;5065382;28;20047;-78
2022/10/03 07:11:50;;;;;;;8.63;1.48;;;12.50;99.90;;;;;;5049144;28;20054;-78
2022/10/03 07:14:57;;;;;;;13.75;1.65;;;12.70;99.90;;;;;;5064602;28;20055;-78
2022/10/03 07:17:41;;;;;;;3.58;1.38;;;12.90;99.90;;;;;;5056476;28;20048;-78
2022/10/03 07:20:16;;;;;;;9.80;1.73;;;13.10;99.90;;;;;;5065426;28;20048;-78
2022/10/03 07:23:19;;;;;;;10.80;1.67;;;13.30;99.90;;;;;;5047171;28;20045;-78
2022/10/03 07:26:21;;;;;;;9.40;1.90;;;13.50;99.90;;;;;;5064670;28;20040;-78
2022/10/03 07:29:08;;;;;;;8.00;1.40;;;13.70;99.90;;;;;;5048916;28;20041;-79
2022/10/03 07:31:57;;;;;;;6.57;1.40;;;13.90;99.90;;;;;;5064582;28;20381;-79
2022/10/03 07:35:00;;;;;;;13.23;2.00;;;14.40;99.90;;;;;;5064772;28;20043;-79
2022/10/03 07:40:47;;;;;;;7.95;1.27;;;16.10;99.90;;;;;;5064697;28;20471;-79
2022/10/03 07:43:31;;;;;;;7.25;1.38;;;17.10;99.90;;;;;;5046660;28;20048;-79
2022/10/03 07:46:29;;;;;;;5.10;1.27;;;17.80;99.90;;;;;;5047803;28;20071;-78
2022/10/03 07:49:24;;;;;;;10.60;1.58;;;18.40;99.90;;;;;;5066118;28;20040;-79
2022/10/03 07:52:35;;;;;;;6.68;1.23;;;18.70;99.90;;;;;;5044087;28;20067;-79
2022/10/03 07:55:19;;;;;;;10.30;1.20;;;19.20;99.90;;;;;;5061560;28;20075;-80
2022/10/03 07:58:14;;;;;;;5.07;1.00;;;19.50;99.90;;;;;;5066006;28;20059;-80
2022/10/03 08:00:43;;;;;;;8.40;1.23;;;19.70;99.90;;;;;;5063658;28;20048;-80
2022/10/03 08:03:37;;;;;;;7.25;0.75;;;20.30;99.90;;;;;;5063089;28;20072;-80
2022/10/03 08:06:48;;;;;;;6.18;1.02;;;20.70;99.90;;;;;;5050759;28;20427;-80
2022/10/03 08:09:49;;;;;;;5.43;1.10;;;20.90;99.90;;;;;;5036294;28;20040;-80
2022/10/03 08:12:20;;;;;;;6.50;0.90;;;20.80;99.90;;;;;;5062276;28;20055;-79
2022/10/03 08:15:05;;;;;;;5.72;0.75;;;21.00;99.90;;;;;;5068259;28;20040;-80
2022/10/03 08:17:53;;;;;;;10.20;1.17;;;21.30;99.90;;;;;;5049638;28;20059;-80
2022/10/03 08:20:27;;;;;;;4.88;0.75;;;21.50;99.90;;;;;;5067133;28;20057;-80
2022/10/03 08:22:59;;;;;;;6.35;0.85;;;21.60;99.90;;;;;;5069920;28;20418;-80
2022/10/03 08:25:51;;;;;;;4.60;0.88;;;21.70;99.90;;;;;;5065969;28;20078;-80
2022/10/03 08:28:42;;;;;;;5.75;1.10;;;22.00;99.90;;;;;;5052051;28;20036;-80
2022/10/03 08:31:26;;;;;;;7.22;1.00;;;22.00;99.90;;;;;;5069328;28;20429;-80
2022/10/03 08:34:22;;;;;;;6.22;0.98;;;22.40;99.90;;;;;;5067842;28;20128;-80
2022/10/03 08:37:18;;;;;;;6.25;0.70;;;22.60;99.90;;;;;;5070025;28;20446;-79
2022/10/03 08:40:18;;;;;;;8.07;1.23;;;22.60;99.90;;;;;;5067224;28;20053;-79
2022/10/03 08:43:18;;;;;;;6.60;0.73;;;22.70;99.90;;;;;;5052140;28;20035;-79
2022/10/03 08:45:51;;;;;;;5.95;1.00;;;22.90;99.90;;;;;;5070173;28;20045;-79
2022/10/03 08:48:41;;;;;;;5.00;0.90;;;23.00;99.90;;;;;;5052404;28;20455;-79
2022/10/03 08:51:42;;;;;;;5.60;1.10;;;23.00;99.90;;;;;;5069628;28;20043;-79
2022/10/03 08:54:36;;;;;;;6.57;0.93;;;23.60;99.90;;;;;;5051422;28;20048;-80
2022/10/03 08:57:05;;;;;;;4.60;0.90;;;24.00;99.90;;;;;;5068812;28;20037;-80
2022/10/03 08:59:39;;;;;;;6.07;0.82;;;23.90;99.90;;;;;;5051725;28;20095;-80
2022/10/03 09:02:28;;;;;;;4.25;1.02;;;24.00;99.90;;;;;;5065194;28;20028;-80
2022/10/03 09:05:12;;;;;;;3.50;0.52;;;24.00;99.90;;;;;;5068420;28;20099;-80
2022/10/03 09:08:23;;;;;;;4.53;0.80;;;24.00;99.90;;;;;;5053397;28;20500;-80
2022/10/03 09:11:26;;;;;;;3.38;0.73;;;24.30;99.90;;;;;;5067647;28;20172;-80
2022/10/03 09:14:26;;;;;;;4.85;0.80;;;24.60;99.80;;;;;;5067129;28;20094;-80
2022/10/03 09:17:13;;;;;;;6.30;1.13;;;24.10;99.90;;;;;;5067375;28;20081;-79
2022/10/03 09:20:09;;;;;;;5.45;0.85;;;23.70;99.90;;;;;;5068194;28;20162;-79
2022/10/03 09:23:05;;;;;;;4.80;0.75;;;23.80;99.90;;;;;;5052178;28;20536;-79
2022/10/03 09:26:05;;;;;;;4.15;0.73;;;23.80;99.90;;;;;;5069401;28;20488;-78
2022/10/03 09:28:31;;;;;;;4.72;0.80;;;23.60;99.90;;;;;;5069628;28;20028;-78
2022/10/03 09:31:25;;;;;;;5.38;0.80;;;23.90;99.90;;;;;;5069498;28;20097;-78
2022/10/03 09:33:57;;;;;;;7.75;0.80;;;24.40;99.90;;;;;;5050838;28;20048;-80
2022/10/03 09:36:52;;;;;;;5.82;1.10;;;24.40;99.90;;;;;;5051759;28;20142;-77
2022/10/03 09:39:30;;;;;;;4.80;0.73;;;24.50;99.50;;;;;;5053196;28;20515;-79
2022/10/03 09:42:02;;;;;;;7.78;1.17;;;24.60;99.10;;;;;;5051817;28;20036;-79
2022/10/03 09:45:02;;;;;;;5.13;0.80;;;24.90;99.40;;;;;;5067620;28;20036;-79
2022/10/03 09:48:02;;;;;;;5.10;1.13;;;25.00;99.40;;;;;;5067249;28;20249;-80
2022/10/03 09:50:50;;;;;;;5.18;0.90;;;25.00;99.50;;;;;;5051389;28;20037;-79
2022/10/03 09:53:35;;;;;;;6.18;0.90;;;25.20;98.80;;;;;;5067859;28;20562;-79
2022/10/03 09:56:35;;;;;;;5.25;0.73;;;24.90;99.10;;;;;;5067236;28;20048;-79
2022/10/03 09:59:37;;;;;;;4.20;0.60;;;24.80;98.50;;;;;;5066379;28;20044;-79
2022/10/03 10:02:27;;;;;;;3.78;0.70;;;24.80;99.20;;;;;;5065125;28;20033;-79
2022/10/03 10:05:34;;;;;;;6.10;1.25;;;24.90;99.70;;;;;;5067618;28;20033;-79
2022/10/03 10:08:28;;;;;;;4.13;0.60;;;25.00;98.10;;;;;;5066232;28;20570;-79
2022/10/03 10:11:06;;;;;;;4.40;0.68;;;25.10;98.00;;;;;;5069111;28;20047;-79
2022/10/03 10:13:53;;;;;;;5.20;0.75;;;25.40;98.30;;;;;;5067552;28;20111;-79
2022/10/03 10:16:48;;;;;;;5.00;0.60;;;25.10;98.20;;;;;;5050214;28;20041;-79
2022/10/03 10:19:28;;;;;;;5.55;0.90;;;25.40;97.90;;;;;;5068775;28;20081;-79
2022/10/03 10:22:38;;;;;;;3.17;0.63;;;25.50;97.60;;;;;;5050540;28;20056;-79
2022/10/03 10:25:37;;;;;;;3.92;0.70;;;25.40;97.60;;;;;;5048741;28;20037;-79
2022/10/03 10:28:17;;;;;;;4.90;0.70;;;25.10;97.50;;;;;;5065094;28;20476;-79
2022/10/03 10:30:46;;;;;;;3.95;0.63;;;25.10;98.00;;;;;;5051233;28;20048;-79
2022/10/03 10:34:10;;;;;;;3.53;0.57;;;25.50;98.00;;;;;;5067862;28;20094;-79
2022/10/03 10:37:11;;;;;;;3.13;0.50;;;25.80;97.40;;;;;;5037882;28;20101;-78
2022/10/03 10:40:15;;;;;;;6.05;0.90;;;25.80;97.10;;;;;;5050666;28;20033;-78
2022/10/03 10:43:26;;;;;;;2.72;0.82;;;25.50;97.20;;;;;;5065490;28;20117;-78
2022/10/03 10:45:57;;;;;;;4.78;0.60;;;25.50;97.30;;;;;;5062331;28;20048;-79
2022/10/03 10:48:51;;;;;;;3.60;1.17;;;25.20;97.80;;;;;;5066103;28;20113;-79
2022/10/03 10:51:41;;;;;;;2.50;0.55;;;25.30;97.70;;;;;;5063447;28;20481;-79
2022/10/03 10:54:47;;;;;;;2.80;0.55;;;25.30;97.50;;;;;;5065583;28;20036;-78
2022/10/03 10:57:36;;;;;;;2.97;0.68;;;25.30;97.40;;;;;;5050133;28;20043;-79
2022/10/03 11:00:34;;;;;;;5.82;0.70;;;25.30;97.80;;;;;;5049661;28;20036;-79
2022/10/03 11:03:25;;;;;;;4.50;0.93;;;25.20;97.60;;;;;;5064721;28;20044;-79
2022/10/03 11:06:11;;;;;;;4.68;1.00;;;25.30;97.10;;;;;;5066078;28;20043;-78
2022/10/03 11:08:37;;;;;;;;;;;25.40;97.90;;;;;;5047831;28;20028;-79
2022/10/03 11:11:27;;;;;;;4.40;1.00;;;25.40;97.40;;;;;;5067932;28;19916;-79
2022/10/03 11:14:16;;;;;;;4.30;0.85;;;25.70;97.40;;;;;;5062984;28;20051;-83
2022/10/03 11:17:26;;;;;;;3.30;0.75;;;26.30;97.90;;;;;;5019204;28;20044;-83
2022/10/03 11:20:26;;;;;;;5.43;0.80;;;26.80;96.60;;;;;;5012974;28;20048;-83
2022/10/03 11:23:26;;;;;;;3.75;0.73;;;26.30;96.80;;;;;;5051562;28;20624;-83
2022/10/03 11:26:10;;;;;;;4.57;0.95;;;25.90;97.10;;;;;;5067223;28;20035;-83
2022/10/03 11:28:57;;;;;;;5.13;0.68;;;25.60;97.20;;;;;;5065284;28;20118;-83
2022/10/03 11:32:01;;;;;;;6.22;0.68;;;25.50;97.40;;;;;;5051248;28;20380;-82
2022/10/03 11:35:05;;;;;;;3.78;0.65;;;25.30;97.40;;;;;;5067736;28;20040;-83
2022/10/03 11:37:48;;;;;;;2.63;0.40;;;25.30;97.70;;;;;;5058205;28;20044;-83
2022/10/03 11:40:13;;;;;;;4.80;0.70;;;25.00;96.80;;;;;;5068729;28;20986;-83
2022/10/03 11:42:49;;;;;;;2.90;0.73;;;24.60;97.80;;;;;;5068858;28;20043;-83
2022/10/03 11:45:48;;;;;;;3.45;0.60;;;24.70;97.30;;;;;;5068487;28;20032;-82
2022/10/03 11:48:37;;;;;;;3.97;0.73;;;24.50;97.80;;;;;;5068053;28;20051;-82
2022/10/03 11:51:34;;;;;;;3.83;0.70;;;24.60;97.90;;;;;;5067955;28;20076;-82
2022/10/03 11:54:19;;;;;;;5.55;0.90;;;24.50;97.50;;;;;;5048846;28;20041;-82
2022/10/03 11:56:50;;;;;;;2.63;0.60;;;24.70;97.40;;;;;;5052322;28;20067;-82
2022/10/03 11:59:21;;;;;;;3.85;0.63;;;24.90;97.50;;;;;;5069482;28;20043;-83
2022/10/03 12:01:59;;;;;;;4.53;0.77;;;25.10;97.60;;;;;;5049922;28;20518;-83
2022/10/03 12:04:37;;;;;;;2.72;0.60;;;25.40;97.60;;;;;;5066649;28;20041;-83
2022/10/03 12:10:46;;;;;;;1.80;0.40;;;26.20;96.60;;;;;;5041346;28;20043;-83
2022/10/03 12:13:29;;;;;;;3.67;0.77;;;26.90;96.70;;;;;;5050523;28;20496;-83
2022/10/03 12:15:57;;;;;;;3.30;0.60;;;27.00;96.00;;;;;;5068345;28;20035;-83
2022/10/03 12:18:51;;;;;;;3.70;0.55;;;27.00;96.40;;;;;;5052293;28;20075;-83
2022/10/03 12:21:32;;;;;;;4.03;0.68;;;26.50;96.50;;;;;;5068668;28;20485;-83
2022/10/03 12:24:23;;;;;;;3.58;0.55;;;26.30;96.30;;;;;;5050405;28;20045;-83
2022/10/03 12:27:20;;;;;;;2.35;0.60;;;25.80;97.10;;;;;;5068927;28;20439;-84
2022/10/03 12:29:57;;;;;;;2.53;0.40;;;25.20;96.80;;;;;;5050801;28;20517;-84
2022/10/03 12:32:25;;;;;;;4.40;0.75;;;24.90;97.00;;;;;;5067843;28;20159;-84
2022/10/03 12:35:18;;;;;;;3.92;0.60;;;24.20;97.70;;;;;;5067763;28;20047;-83
2022/10/03 12:38:08;;;;;;;4.20;0.60;;;23.90;98.10;;;;;;5067085;28;20083;-84
2022/10/03 12:40:48;;;;;;;3.00;0.52;;;24.00;98.20;;;;;;5067915;28;20450;-83
2022/10/03 12:43:37;;;;;;;4.70;0.45;;;24.10;98.40;;;;;;5050588;28;20123;-83
2022/10/03 12:46:42;;;;;;;5.20;0.80;;;24.10;98.90;;;;;;5066176;28;20040;-83
2022/10/03 12:49:30;;;;;;;3.15;0.80;;;24.20;98.80;;;;;;5049277;28;20040;-83
2022/10/03 12:52:00;;;;;;;4.70;0.77;;;24.50;97.80;;;;;;5069871;28;20053;-83
2022/10/03 12:54:25;;;;;;;3.22;0.63;;;24.50;97.70;;;;;;5053365;28;20043;-83
2022/10/03 12:57:29;;;;;;;6.75;0.95;;;24.90;98.20;;;;;;5071343;28;20127;-84
2022/10/03 13:00:22;;;;;;;4.72;0.65;;;25.10;97.70;;;;;;5053952;28;20047;-83
2022/10/03 13:03:09;;;;;;;3.97;0.70;;;24.90;97.50;;;;;;5069871;28;20040;-83
2022/10/03 13:05:59;;;;;;;3.30;0.60;;;24.40;98.00;;;;;;5054824;28;20028;-84
2022/10/03 13:08:34;;;;;;;3.97;0.60;;;23.90;98.00;;;;;;5068797;28;20081;-83
2022/10/03 13:11:17;;;;;;;4.22;0.52;;;23.70;98.30;;;;;;5071845;28;20044;-84
2022/10/03 13:14:22;;;;;;;4.45;0.57;;;23.30;98.40;;;;;;5070002;28;20558;-83
2022/10/03 13:17:13;;;;;;;4.97;0.80;;;23.00;99.00;;;;;;5070485;28;20040;-83
2022/10/03 13:19:53;;;;;;;5.38;0.70;;;23.10;99.70;;;;;;5053395;28;20044;-83
2022/10/03 13:22:42;;;;;;;5.63;0.85;;;22.90;98.90;;;;;;5069304;28;20036;-83
2022/10/03 13:25:29;;;;;;;4.45;0.80;;;22.70;99.30;;;;;;5068957;28;20052;-83
2022/10/03 13:28:14;;;;;;;5.63;0.65;;;22.50;99.60;;;;;;5053115;28;20040;-83
2022/10/03 13:30:46;;;;;;;2.53;0.65;;;22.40;99.30;;;;;;5056284;28;20369;-80
2022/10/03 13:33:20;;;;;;;3.72;0.70;;;22.40;99.80;;;;;;5054623;28;20032;-82
2022/10/03 13:35:58;;;;;;;5.07;0.93;;;22.40;99.90;;;;;;5072739;28;20075;-79
2022/10/03 13:38:53;;;;;;;4.53;0.75;;;22.20;99.90;;;;;;5072350;28;20036;-81
2022/10/03 13:41:58;;;;;;;4.93;0.70;;;22.20;99.90;;;;;;5069368;28;20052;-82
2022/10/03 13:44:41;;;;;;;4.45;0.77;;;22.10;99.90;;;;;;5054188;28;20041;-82
2022/10/03 13:47:28;;;;;;;3.88;0.80;;;22.20;99.90;;;;;;5055869;28;20032;-82
2022/10/03 13:50:05;;;;;;;3.22;0.50;;;22.10;99.90;;;;;;5054994;28;20037;-82
2022/10/03 13:52:54;;;;;;;3.13;0.52;;;22.00;99.90;;;;;;5055085;28;20037;-81
2022/10/03 13:55:44;;;;;;;4.45;0.60;;;22.00;99.90;;;;;;5070159;28;20041;-82
2022/10/03 13:58:22;;;;;;;4.82;0.70;;;21.90;99.90;;;;;;5071169;28;20048;-82
2022/10/03 14:01:12;;;;;;;2.97;0.68;;;21.70;99.90;;;;;;5071641;28;20064;-82
2022/10/03 14:03:41;;;;;;;4.63;0.85;;;21.60;99.90;;;;;;5067051;28;20036;-82
2022/10/03 14:06:09;;;;;;;3.95;0.63;;;21.80;99.90;;;;;;5071750;28;20056;-82
2022/10/03 14:09:00;;;;;;;5.25;0.77;;;21.70;99.90;;;;;;5053397;28;20037;-82
2022/10/03 14:11:55;;;;;;;6.05;0.70;;;21.70;99.90;;;;;;5071888;28;20032;-82
2022/10/03 14:14:33;;;;;;;3.42;0.65;;;21.60;99.90;;;;;;5069728;28;20044;-82
2022/10/03 14:17:16;;;;;;;3.05;0.38;;;21.60;99.90;;;;;;5053707;28;20048;-82
2022/10/03 14:20:01;;;;;;;4.03;0.80;;;21.50;99.90;;;;;;5054374;28;20033;-81
2022/10/03 14:22:42;;;;;;;2.80;0.60;;;21.50;99.90;;;;;;5052132;28;20378;-81
2022/10/03 14:25:23;;;;;;;4.10;1.05;;;21.40;99.90;;;;;;5068451;28;20101;-81
2022/10/03 14:27:53;;;;;;;4.07;0.60;;;21.50;99.90;;;;;;5066578;28;20043;-82
2022/10/03 14:30:33;;;;;;;2.65;0.50;;;21.50;99.90;;;;;;5070255;28;20547;-81
2022/10/03 14:33:24;;;;;;;4.75;0.77;;;21.50;99.90;;;;;;5069994;28;20147;-82
2022/10/03 14:36:08;;;;;;;3.00;0.82;;;21.50;99.90;;;;;;5069462;28;20090;-81
2022/10/03 14:39:00;;;;;;;3.85;0.60;;;21.50;99.90;;;;;;5067391;28;20119;-81